Terminal Aerodrome Forecast
Issued by NWS

Home | Current Version | Previous Version | Text Only | Print | Product List | Glossary On
Versions: 1 2 3 4 5 6 7 8 9 10 11 12 13 14 15 16 17
000
FTUS41 KBGM 281130
TAFITH
TAF
KITH 281130Z 2812/2912 08005KT P6SM SCT250
     FM281400 15010KT P6SM SCT250
     FM282100 14008KT P6SM BKN080
     FM290600 13008KT P6SM OVC040
      TEMPO 2909/2912 3SM -SHRA BR OVC025=

USA.gov is the U.S. government's official web portal to all federal, state and local government web resources and services.